Jerusalem, Rhode Island
Current Conditions -  °F | °C
As of 11:53 AM on Saturday 25 Oct 2014 (Local Time) from KWST Reporting Station
Clear Clear  
Wind Chill: 60°   Ceiling: Unl
Heat Index: 60°   Visibility: 10mi
Dew Point: 45°   Wind: 8mph
Humidity: 57%   Direction: 230°SW
Pressure: 29.75"   Gusts: NA
Location:  41.4261°N, 71.5353°W
Report Text: KWST 251553Z AUTO 23007KT 180V250 10SM CLR 16/07 A2975 RMK AO2 SLP075 T01560072
Loading
Personal Weather Stations






























Interactive Weather Map
Tropical Storm Tracking
New forecast layout! Learn more

10-Day Weather Forecast

Advertisements
Track Severe Weather on mobile